createdAt,value
2022-12-23T00:03:15.973Z,5.88
2022-12-23T00:06:40.157Z,5.89
2022-12-23T00:10:05.177Z,5.92
2022-12-23T00:13:47.807Z,5.93
2022-12-23T00:17:22.164Z,5.99
2022-12-23T00:20:44.722Z,6.06
2022-12-23T00:24:06.504Z,6.13
2022-12-23T00:27:34.295Z,6.17
2022-12-23T00:31:05.174Z,6.26
2022-12-23T00:34:26.776Z,6.30
2022-12-23T00:37:48.390Z,6.33
2022-12-23T00:41:37.169Z,6.26
2022-12-23T00:45:15.812Z,6.33
2022-12-23T00:48:59.069Z,6.34
2022-12-23T00:52:22.984Z,6.34
2022-12-23T00:55:47.780Z,6.27
2022-12-23T00:59:14.428Z,6.33
2022-12-23T01:02:54.889Z,6.36
2022-12-23T01:06:19.060Z,6.40
2022-12-23T01:09:43.161Z,6.40
2022-12-23T01:13:07.652Z,6.36
2022-12-23T01:16:31.705Z,6.26
2022-12-23T01:19:56.289Z,6.17
2022-12-23T01:23:20.116Z,6.17
2022-12-23T01:26:41.757Z,6.20
2022-12-23T01:30:04.010Z,6.16
2022-12-23T01:33:25.743Z,6.17
2022-12-23T01:36:47.340Z,6.21
2022-12-23T01:40:11.899Z,6.16
2022-12-23T01:43:51.947Z,6.14
2022-12-23T01:47:20.439Z,6.09
2022-12-23T01:50:50.051Z,6.11
2022-12-23T01:54:11.725Z,6.07
2022-12-23T01:57:36.792Z,5.96
2022-12-23T02:01:17.616Z,6.05
2022-12-23T02:04:39.593Z,6.05
2022-12-23T02:08:22.217Z,6.00
2022-12-23T02:12:08.320Z,6.07
2022-12-23T02:16:06.948Z,6.02
2022-12-23T02:20:04.006Z,6.02
2022-12-23T02:23:53.432Z,6.02
2022-12-23T02:27:19.210Z,6.17
2022-12-23T02:30:52.681Z,6.14
2022-12-23T02:34:50.076Z,6.09
2022-12-23T02:38:14.618Z,6.00
2022-12-23T02:42:01.593Z,5.93
2022-12-23T02:45:32.285Z,5.92
2022-12-23T02:49:03.896Z,5.82
2022-12-23T02:52:34.810Z,5.90
2022-12-23T02:55:58.775Z,5.88
2022-12-23T02:59:27.900Z,5.86
2022-12-23T03:02:52.316Z,5.88
2022-12-23T03:06:22.574Z,5.79
2022-12-23T03:09:54.305Z,5.81
2022-12-23T03:13:42.979Z,5.81
2022-12-23T03:17:38.403Z,5.93
2022-12-23T03:21:11.667Z,5.86
2022-12-23T03:25:00.033Z,5.89
2022-12-23T03:28:42.945Z,5.78
2022-12-23T03:32:08.267Z,5.73
2022-12-23T03:35:45.020Z,5.78
2022-12-23T03:39:11.320Z,5.66
2022-12-23T03:42:39.826Z,5.50
2022-12-23T03:46:09.172Z,5.43
2022-12-23T03:49:40.116Z,5.44
2022-12-23T03:53:19.114Z,5.40
2022-12-23T03:56:52.535Z,5.62
2022-12-23T04:00:14.327Z,5.59
2022-12-23T04:03:45.835Z,5.56
2022-12-23T04:07:31.434Z,5.54
2022-12-23T04:10:53.529Z,5.38
2022-12-23T04:14:19.306Z,5.40
2022-12-23T04:17:40.889Z,5.41
2022-12-23T04:21:02.518Z,5.43
2022-12-23T04:24:26.940Z,5.38
2022-12-23T04:27:48.554Z,5.41
2022-12-23T04:31:12.477Z,5.50
2022-12-23T04:34:34.136Z,5.56
2022-12-23T04:37:58.190Z,5.61
2022-12-23T04:41:19.789Z,5.66
2022-12-23T04:44:41.360Z,5.48
2022-12-23T04:48:02.990Z,5.47
2022-12-23T04:51:24.575Z,5.48
2022-12-23T04:54:46.669Z,5.23
2022-12-23T04:58:08.312Z,5.19
2022-12-23T05:01:30.221Z,5.22
2022-12-23T05:04:54.637Z,5.26
2022-12-23T05:08:18.405Z,5.37
2022-12-23T05:11:42.375Z,5.38
2022-12-23T05:15:04.492Z,5.31
2022-12-23T05:18:26.144Z,5.28
2022-12-23T05:21:47.731Z,5.33
2022-12-23T05:25:09.568Z,5.20
2022-12-23T05:28:33.766Z,5.16
2022-12-23T05:31:57.457Z,5.04
2022-12-23T05:35:22.116Z,5.17
2022-12-23T05:38:43.723Z,5.14
2022-12-23T05:42:07.916Z,5.14
2022-12-23T05:45:38.838Z,5.10
2022-12-23T05:49:02.681Z,5.06
2022-12-23T05:52:26.790Z,5.06
2022-12-23T05:55:48.943Z,5.00
2022-12-23T05:59:11.080Z,5.19
2022-12-23T06:02:35.163Z,5.24
2022-12-23T06:05:56.978Z,5.34
2022-12-23T06:09:18.551Z,5.17
2022-12-23T06:12:42.431Z,5.10
2022-12-23T06:16:06.916Z,5.03
2022-12-23T06:19:28.517Z,4.99
2022-12-23T06:22:50.257Z,4.92
2022-12-23T06:26:11.865Z,4.97
2022-12-23T06:29:33.502Z,4.89
2022-12-23T06:32:55.100Z,4.92
2022-12-23T06:36:16.727Z,4.99
2022-12-23T06:39:38.285Z,4.85
2022-12-23T06:43:02.068Z,4.87
2022-12-23T06:46:23.696Z,4.87
2022-12-23T06:49:45.357Z,4.97
2022-12-23T06:53:07.014Z,5.10
2022-12-23T06:56:33.042Z,5.04
2022-12-23T06:59:54.772Z,5.14
2022-12-23T07:03:16.537Z,5.16
2022-12-23T07:06:39.508Z,5.20
2022-12-23T07:10:01.103Z,5.26
2022-12-23T07:13:22.687Z,5.23
2022-12-23T07:16:45.270Z,5.43
2022-12-23T07:20:08.650Z,5.10
2022-12-23T07:23:30.613Z,5.09
2022-12-23T07:26:52.308Z,5.50
2022-12-23T07:30:14.037Z,5.99
2022-12-23T07:33:37.821Z,6.34
2022-12-23T07:36:59.444Z,6.93
2022-12-23T07:40:24.159Z,6.79
2022-12-23T07:43:48.496Z,6.55
2022-12-23T07:47:12.374Z,6.79
2022-12-23T07:50:36.715Z,6.71
2022-12-23T07:53:58.456Z,6.27
2022-12-23T07:57:20.192Z,5.96
2022-12-23T08:00:41.762Z,5.45
2022-12-23T08:04:05.854Z,5.12
2022-12-23T08:07:29.927Z,5.14
2022-12-23T08:10:51.492Z,5.22
2022-12-23T08:14:13.103Z,5.27
2022-12-23T08:17:35.328Z,5.19
2022-12-23T08:21:02.194Z,5.41
2022-12-23T08:24:23.795Z,5.82
2022-12-23T08:27:47.423Z,6.09
2022-12-23T08:31:13.807Z,6.38
2022-12-23T08:34:38.179Z,6.45
2022-12-23T08:37:59.760Z,6.54
2022-12-23T08:41:27.166Z,6.61
